createdAt,value
2018-07-26T00:00:10.877Z,72.76
2018-07-26T00:02:39.162Z,72.42
2018-07-26T00:05:07.470Z,73.37
2018-07-26T00:07:36.132Z,73.34
2018-07-26T00:10:05.394Z,72.27
2018-07-26T00:12:33.711Z,72.01
2018-07-26T00:15:02.021Z,71.75
2018-07-26T00:17:30.338Z,73.15
2018-07-26T00:19:58.632Z,72.42
2018-07-26T00:22:26.911Z,72.42
2018-07-26T00:24:55.223Z,71.14
2018-07-26T00:27:23.491Z,71.95
2018-07-26T00:29:51.815Z,72.39
2018-07-26T00:32:20.162Z,74.06
2018-07-26T00:34:48.482Z,73.62
2018-07-26T00:37:16.809Z,74.08
2018-07-26T00:39:45.111Z,73.88
2018-07-26T00:42:13.422Z,74.92
2018-07-26T00:44:41.766Z,74.44
2018-07-26T00:47:10.392Z,73.28
2018-07-26T00:49:38.711Z,74.03
2018-07-26T00:52:07.180Z,74.91
2018-07-26T00:54:35.479Z,74.94
2018-07-26T00:57:03.837Z,74.97
2018-07-26T00:59:32.130Z,75.12
2018-07-26T01:02:00.382Z,74.46
2018-07-26T01:04:28.679Z,75.04
2018-07-26T01:06:56.956Z,75.42
2018-07-26T01:09:25.247Z,75.77
2018-07-26T01:11:53.580Z,77.15
2018-07-26T01:14:21.877Z,75.34
2018-07-26T01:16:50.328Z,73.77
2018-07-26T01:19:18.618Z,72.86
2018-07-26T01:21:46.907Z,72.63
2018-07-26T01:24:15.396Z,74.85
2018-07-26T01:26:43.690Z,76.54
2018-07-26T01:29:11.983Z,77.26
2018-07-26T01:31:40.261Z,77.72
2018-07-26T01:34:08.562Z,77.30
2018-07-26T01:36:36.850Z,77.13
2018-07-26T01:39:07.962Z,76.77
2018-07-26T01:41:36.316Z,75.13
2018-07-26T01:44:16.028Z,75.00
2018-07-26T01:46:44.337Z,75.37
2018-07-26T01:49:12.642Z,75.70
2018-07-26T01:51:40.993Z,75.46
2018-07-26T01:54:09.437Z,76.58
2018-07-26T01:56:37.723Z,77.59
2018-07-26T01:59:06.077Z,78.68
2018-07-26T02:01:34.487Z,78.07
2018-07-26T02:04:02.753Z,77.46
2018-07-26T02:06:31.081Z,75.92
2018-07-26T02:08:59.383Z,76.17
2018-07-26T02:11:27.721Z,76.44
2018-07-26T02:13:56.022Z,76.30
2018-07-26T02:16:24.338Z,75.64
2018-07-26T02:18:52.643Z,76.27
2018-07-26T02:21:20.969Z,77.42
2018-07-26T02:23:49.262Z,79.11
2018-07-26T02:26:17.597Z,78.55
2018-07-26T02:28:45.900Z,78.61
2018-07-26T02:31:14.251Z,76.47
2018-07-26T02:33:42.565Z,76.54
2018-07-26T02:36:10.893Z,76.74
2018-07-26T02:38:39.287Z,76.47
2018-07-26T02:41:07.615Z,77.07
2018-07-26T02:43:35.919Z,76.71
2018-07-26T02:46:04.236Z,77.01
2018-07-26T02:48:32.510Z,77.58
2018-07-26T02:51:00.807Z,76.57
2018-07-26T02:53:29.093Z,76.40
2018-07-26T02:55:57.406Z,76.11
2018-07-26T02:58:25.692Z,76.72
2018-07-26T03:00:53.991Z,77.23
2018-07-26T03:03:22.265Z,77.95
2018-07-26T03:05:50.539Z,79.12
2018-07-26T03:08:18.850Z,79.89
2018-07-26T03:10:47.212Z,79.20
2018-07-26T03:13:15.571Z,77.87
2018-07-26T03:15:43.887Z,77.44
2018-07-26T03:18:12.186Z,78.68
2018-07-26T03:20:40.710Z,79.00
2018-07-26T03:23:08.955Z,79.67
2018-07-26T03:25:37.231Z,79.30
2018-07-26T03:28:05.489Z,78.49
2018-07-26T03:30:33.781Z,78.68
2018-07-26T03:33:02.104Z,78.87
2018-07-26T03:35:30.393Z,77.94
2018-07-26T03:37:58.721Z,77.86
2018-07-26T03:40:26.983Z,77.30
2018-07-26T03:42:56.350Z,77.58
2018-07-26T03:45:24.576Z,78.48
2018-07-26T03:47:52.821Z,78.91
2018-07-26T03:50:21.199Z,79.59
2018-07-26T03:52:49.542Z,79.98
2018-07-26T03:55:17.890Z,79.27
2018-07-26T03:57:46.192Z,78.52
2018-07-26T04:00:14.403Z,77.57
2018-07-26T04:02:42.726Z,78.92
2018-07-26T04:05:10.989Z,80.60
2018-07-26T04:07:39.335Z,78.08
2018-07-26T04:10:07.717Z,77.65
2018-07-26T04:12:36.013Z,77.00
2018-07-26T04:15:04.955Z,77.25
2018-07-26T04:17:33.214Z,77.24
2018-07-26T04:20:01.538Z,76.46
2018-07-26T04:22:29.920Z,75.68
2018-07-26T04:24:58.182Z,76.03
2018-07-26T04:27:26.600Z,76.21
2018-07-26T04:29:54.840Z,76.98
2018-07-26T04:32:23.112Z,77.40
2018-07-26T04:34:51.364Z,77.41
2018-07-26T04:37:19.677Z,77.44
2018-07-26T04:39:47.899Z,77.46
2018-07-26T04:42:16.145Z,77.49
2018-07-26T04:44:44.633Z,76.63
2018-07-26T04:47:12.988Z,76.38
2018-07-26T04:49:41.313Z,76.05
2018-07-26T04:52:09.917Z,74.88
2018-07-26T04:54:38.296Z,75.15
2018-07-26T04:57:06.637Z,74.29
2018-07-26T04:59:35.057Z,73.56
2018-07-26T05:02:03.505Z,74.12
2018-07-26T05:04:31.922Z,73.41
2018-07-26T05:07:00.334Z,73.34
2018-07-26T05:09:28.601Z,72.51
2018-07-26T05:11:56.874Z,72.61
2018-07-26T05:14:25.078Z,71.36
2018-07-26T05:16:53.775Z,71.83
2018-07-26T05:19:22.035Z,71.16
2018-07-26T05:21:50.301Z,71.05
2018-07-26T05:24:18.537Z,70.39
2018-07-26T05:26:46.816Z,69.75
2018-07-26T05:29:15.065Z,69.87
2018-07-26T05:31:43.312Z,69.25
2018-07-26T05:34:11.600Z,69.21
2018-07-26T05:36:40.076Z,69.00
2018-07-26T05:39:10.212Z,68.62
2018-07-26T05:41:39.189Z,67.55
2018-07-26T05:44:07.450Z,67.61
2018-07-26T05:46:35.872Z,67.70
2018-07-26T05:49:04.330Z,66.40
2018-07-26T05:51:32.596Z,67.03
2018-07-26T05:54:00.870Z,65.95
2018-07-26T05:56:29.289Z,64.69
2018-07-26T05:58:57.580Z,64.58
2018-07-26T06:01:25.871Z,63.36
2018-07-26T06:03:54.429Z,61.82
2018-07-26T06:06:22.841Z,60.99
2018-07-26T06:08:51.233Z,62.22
2018-07-26T06:11:20.087Z,62.08
2018-07-26T06:13:48.436Z,61.32
2018-07-26T06:16:16.794Z,60.81
2018-07-26T06:18:45.112Z,60.78
2018-07-26T06:21:13.424Z,59.83
2018-07-26T06:23:41.685Z,59.29
2018-07-26T06:26:10.053Z,59.04
2018-07-26T06:28:38.419Z,58.34
2018-07-26T06:31:06.727Z,57.53
2018-07-26T06:33:35.092Z,57.93
2018-07-26T06:36:03.453Z,57.30
2018-07-26T06:38:31.760Z,56.31
2018-07-26T06:41:00.083Z,56.65
2018-07-26T06:43:28.430Z,57.20
2018-07-26T06:46:00.072Z,56.12
2018-07-26T06:48:30.836Z,56.87
2018-07-26T06:51:00.838Z,56.86
2018-07-26T06:53:30.646Z,57.15
2018-07-26T06:56:00.578Z,55.83
2018-07-26T06:58:29.888Z,57.17
2018-07-26T07:00:59.591Z,55.48
2018-07-26T07:03:29.376Z,55.00
2018-07-26T07:05:58.680Z,54.34
2018-07-26T07:08:28.341Z,54.13
2018-07-26T07:10:57.689Z,54.19
2018-07-26T07:13:26.018Z,54.30
2018-07-26T07:15:55.513Z,55.02
2018-07-26T07:18:25.512Z,54.18
2018-07-26T07:20:53.878Z,54.28
2018-07-26T07:23:22.218Z,53.96
2018-07-26T07:25:50.645Z,54.21
2018-07-26T07:28:18.933Z,54.29
2018-07-26T07:30:47.160Z,53.09
2018-07-26T07:33:15.423Z,52.05
2018-07-26T07:35:44.150Z,53.21
2018-07-26T07:38:12.421Z,52.17
2018-07-26T07:40:42.679Z,52.17
2018-07-26T07:43:26.469Z,51.51
2018-07-26T07:46:13.845Z,52.23
2018-07-26T07:51:54.578Z,51.17
2018-07-26T07:54:23.109Z,50.64
2018-07-26T07:59:53.166Z,50.53
2018-07-26T08:02:25.572Z,50.36
2018-07-26T08:04:56.450Z,49.68
2018-07-26T08:07:24.897Z,49.95
2018-07-26T08:09:54.746Z,49.61
2018-07-26T08:12:25.602Z,50.59
2018-07-26T08:14:55.574Z,48.63
2018-07-26T08:17:24.972Z,48.71
2018-07-26T08:19:53.465Z,49.29
2018-07-26T08:22:22.888Z,49.54
2018-07-26T08:24:53.982Z,49.07
2018-07-26T08:27:28.930Z,49.81
2018-07-26T08:29:57.366Z,48.92
2018-07-26T08:32:25.970Z,48.69
2018-07-26T08:34:54.311Z,47.94
2018-07-26T08:37:22.625Z,46.30
2018-07-26T08:39:50.962Z,46.46
2018-07-26T08:42:19.234Z,48.03
2018-07-26T08:44:47.540Z,46.04
2018-07-26T08:47:15.915Z,46.54
2018-07-26T08:49:44.251Z,45.76
2018-07-26T08:52:12.734Z,46.14
2018-07-26T08:54:41.039Z,45.20
2018-07-26T08:57:09.322Z,45.66
2018-07-26T08:59:37.614Z,45.09
2018-07-26T09:02:06.647Z,45.08
2018-07-26T09:04:34.987Z,43.92
2018-07-26T09:07:03.430Z,44.13
2018-07-26T09:09:31.774Z,44.52
2018-07-26T09:12:00.166Z,44.59
2018-07-26T09:14:28.487Z,44.40
2018-07-26T09:16:56.794Z,43.88
2018-07-26T09:19:25.091Z,44.34
2018-07-26T09:21:53.415Z,43.10
2018-07-26T09:24:21.846Z,42.41
2018-07-26T09:26:50.177Z,43.04
2018-07-26T09:29:20.958Z,43.85
2018-07-26T09:31:49.403Z,42.55
2018-07-26T09:34:17.752Z,41.16
2018-07-26T09:36:46.061Z,41.60
2018-07-26T09:39:17.539Z,42.82
2018-07-26T09:41:45.909Z,42.24
2018-07-26T09:44:18.157Z,41.64
2018-07-26T09:46:46.875Z,40.96
2018-07-26T09:49:15.276Z,41.68
2018-07-26T09:51:43.607Z,42.18
2018-07-26T09:54:12.071Z,40.93
2018-07-26T09:56:40.410Z,40.72
2018-07-26T09:59:08.753Z,40.93
2018-07-26T10:01:38.326Z,39.73
2018-07-26T10:04:06.940Z,40.58
2018-07-26T10:06:35.272Z,37.30
2018-07-26T10:09:06.013Z,36.93
2018-07-26T10:11:34.356Z,37.27
2018-07-26T10:14:02.755Z,37.66
2018-07-26T10:16:31.107Z,37.34
2018-07-26T10:18:59.457Z,39.00
2018-07-26T10:21:27.857Z,38.35
2018-07-26T10:23:56.193Z,36.53
2018-07-26T10:26:24.558Z,38.30
2018-07-26T10:28:52.935Z,38.00
2018-07-26T10:31:21.455Z,35.78
2018-07-26T10:33:49.781Z,36.23
2018-07-26T10:36:18.287Z,35.56
2018-07-26T10:38:46.605Z,35.70
2018-07-26T10:41:15.037Z,32.67
2018-07-26T10:43:43.413Z,32.04
2018-07-26T10:46:11.906Z,32.65
2018-07-26T10:48:40.289Z,33.99
2018-07-26T10:51:08.711Z,33.16
2018-07-26T10:53:37.086Z,33.16
2018-07-26T10:56:05.796Z,29.79
2018-07-26T10:58:34.291Z,29.04
2018-07-26T11:01:02.633Z,27.96
2018-07-26T11:03:31.060Z,29.27
2018-07-26T11:05:59.417Z,28.95
2018-07-26T11:08:27.745Z,30.32
2018-07-26T11:10:56.113Z,25.96
2018-07-26T11:13:24.467Z,28.32
2018-07-26T11:15:52.798Z,28.12
2018-07-26T11:18:21.116Z,28.31
2018-07-26T11:20:49.631Z,27.76
2018-07-26T11:23:18.127Z,26.99
2018-07-26T11:25:46.635Z,29.14
2018-07-26T11:28:15.067Z,28.84
2018-07-26T11:30:43.504Z,27.22
2018-07-26T11:33:11.833Z,29.00
2018-07-26T11:35:40.252Z,28.49
2018-07-26T11:38:08.636Z,28.95
2018-07-26T11:40:37.110Z,29.16
2018-07-26T11:43:05.695Z,28.61
2018-07-26T11:45:34.049Z,29.29
2018-07-26T11:48:02.384Z,29.57
2018-07-26T11:50:30.727Z,29.34
2018-07-26T11:52:59.111Z,29.06
2018-07-26T11:55:27.457Z,28.76
2018-07-26T11:57:55.783Z,30.05
2018-07-26T12:00:24.323Z,29.91
2018-07-26T12:02:52.667Z,29.52
2018-07-26T12:05:21.084Z,30.56
2018-07-26T12:07:49.487Z,30.79
2018-07-26T12:10:18.014Z,30.50
2018-07-26T12:12:46.395Z,29.82
2018-07-26T12:15:14.724Z,29.81
2018-07-26T12:17:43.137Z,30.11
2018-07-26T12:20:11.702Z,28.63
2018-07-26T12:22:40.061Z,28.68
2018-07-26T12:25:08.542Z,28.64
2018-07-26T12:27:37.089Z,29.49
2018-07-26T12:30:06.720Z,28.80
2018-07-26T12:32:35.088Z,28.59
2018-07-26T12:35:03.452Z,29.27
2018-07-26T12:37:31.903Z,28.34
2018-07-26T12:40:00.252Z,28.80
2018-07-26T12:42:34.880Z,28.13
2018-07-26T12:45:03.246Z,28.47
2018-07-26T12:47:31.646Z,28.90
2018-07-26T12:50:00.041Z,29.00
2018-07-26T12:52:28.424Z,27.63
2018-07-26T12:54:56.767Z,27.54
2018-07-26T12:57:25.128Z,28.45
2018-07-26T12:59:53.442Z,28.52
2018-07-26T13:02:21.815Z,28.87
2018-07-26T13:04:50.128Z,28.99
2018-07-26T13:07:18.462Z,27.95
2018-07-26T13:09:46.821Z,28.71
2018-07-26T13:12:15.270Z,27.78
2018-07-26T13:14:43.584Z,28.19
2018-07-26T13:17:12.088Z,28.95
2018-07-26T13:19:40.444Z,28.38
2018-07-26T13:22:08.868Z,29.09
2018-07-26T13:24:37.277Z,29.37
2018-07-26T13:27:05.956Z,28.69
2018-07-26T13:29:34.273Z,26.84
2018-07-26T13:32:02.636Z,27.75
2018-07-26T13:34:30.947Z,27.67
2018-07-26T13:36:59.289Z,27.15
2018-07-26T13:39:27.603Z,27.25
2018-07-26T13:41:56.032Z,27.37
2018-07-26T13:44:24.361Z,25.88
2018-07-26T13:46:52.993Z,25.79
2018-07-26T13:49:21.324Z,27.64
2018-07-26T13:51:49.704Z,27.21
2018-07-26T13:54:18.120Z,25.10
2018-07-26T13:56:46.485Z,26.27
2018-07-26T13:59:14.799Z,26.02
2018-07-26T14:01:43.130Z,25.88
2018-07-26T14:04:11.449Z,26.28
2018-07-26T14:06:39.818Z,25.94
2018-07-26T14:09:09.478Z,26.03
2018-07-26T14:11:37.939Z,25.14
2018-07-26T14:14:06.555Z,24.90
2018-07-26T14:16:35.013Z,25.74
2018-07-26T14:19:03.357Z,25.63
2018-07-26T14:21:31.701Z,25.98
2018-07-26T14:24:02.714Z,24.97
2018-07-26T14:26:32.418Z,25.17
2018-07-26T14:29:00.754Z,24.76
2018-07-26T14:31:29.109Z,25.50
2018-07-26T14:33:57.437Z,25.53
2018-07-26T14:36:25.758Z,25.31
2018-07-26T14:38:54.084Z,25.30
2018-07-26T14:41:22.474Z,25.49
2018-07-26T14:43:50.822Z,24.62
2018-07-26T14:46:19.106Z,25.00
2018-07-26T14:48:47.630Z,26.34
2018-07-26T14:51:15.946Z,25.07
2018-07-26T14:53:44.317Z,24.61
2018-07-26T14:56:12.646Z,24.70
2018-07-26T14:58:41.070Z,25.33
2018-07-26T15:01:09.513Z,25.77
2018-07-26T15:03:37.864Z,26.44
2018-07-26T15:06:06.272Z,25.49
2018-07-26T15:08:34.566Z,24.76
2018-07-26T15:11:03.040Z,26.33
2018-07-26T15:13:31.396Z,27.47
2018-07-26T15:15:59.767Z,27.36
2018-07-26T15:18:29.856Z,27.31
2018-07-26T15:20:58.534Z,27.59
2018-07-26T15:23:27.225Z,26.46
2018-07-26T15:25:55.982Z,25.73
2018-07-26T15:28:25.598Z,26.66
2018-07-26T15:30:59.479Z,27.38
2018-07-26T15:33:28.310Z,27.02
2018-07-26T15:36:05.588Z,27.07
2018-07-26T15:38:41.216Z,27.16
2018-07-26T18:13:25.451Z,32.63
2018-07-26T18:15:53.788Z,32.67
2018-07-26T18:18:22.196Z,32.94
2018-07-26T18:20:50.574Z,32.42
2018-07-26T18:23:18.948Z,33.00
2018-07-26T18:25:47.293Z,32.73
2018-07-26T18:28:15.750Z,33.59
2018-07-26T18:30:44.303Z,33.66
2018-07-26T18:33:12.733Z,34.41
2018-07-26T18:35:41.434Z,34.60
2018-07-26T18:38:09.871Z,34.65
2018-07-26T18:40:38.303Z,33.85
2018-07-26T18:43:06.651Z,34.25
2018-07-26T18:45:36.167Z,33.95
2018-07-26T18:48:05.036Z,35.07
2018-07-26T18:50:33.326Z,34.76
2018-07-26T18:53:01.740Z,36.03
2018-07-26T18:55:30.077Z,37.39
2018-07-26T18:57:58.327Z,38.00
2018-07-26T19:00:26.664Z,39.42
2018-07-26T19:02:55.064Z,39.45
2018-07-26T19:05:23.378Z,36.71
2018-07-26T19:07:51.633Z,37.33
2018-07-26T19:10:20.396Z,39.30
2018-07-26T19:12:49.766Z,39.90
2018-07-26T19:15:18.105Z,40.18
2018-07-26T19:17:46.405Z,41.81
2018-07-26T19:20:14.682Z,41.35
2018-07-26T19:22:42.942Z,41.31
2018-07-26T19:25:12.215Z,41.89
2018-07-26T19:27:40.616Z,42.01
2018-07-26T19:30:11.120Z,42.64
2018-07-26T19:32:39.482Z,42.88
2018-07-26T19:35:07.894Z,43.06
2018-07-26T19:37:36.396Z,43.38
2018-07-26T19:40:06.566Z,44.13
2018-07-26T19:42:34.821Z,45.08
2018-07-26T19:45:03.563Z,43.63
2018-07-26T19:47:32.176Z,45.53
2018-07-26T19:50:00.925Z,45.60
2018-07-26T19:52:29.279Z,45.65
2018-07-26T19:54:57.585Z,46.69
2018-07-26T19:57:25.876Z,47.66
2018-07-26T19:59:54.182Z,47.98
2018-07-26T20:02:22.887Z,47.46
2018-07-26T20:04:51.266Z,48.60
2018-07-26T20:07:19.803Z,48.28
2018-07-26T20:09:48.086Z,48.13
2018-07-26T20:12:18.847Z,48.33
2018-07-26T20:14:47.721Z,49.34
2018-07-26T20:17:15.966Z,48.70
2018-07-26T20:19:44.445Z,48.53
2018-07-26T20:22:13.002Z,48.81
2018-07-26T20:24:41.273Z,48.37
2018-07-26T20:27:15.258Z,49.08
2018-07-26T20:29:43.552Z,49.40
2018-07-26T20:32:11.861Z,49.76
2018-07-26T20:34:40.254Z,51.17
2018-07-26T20:37:13.494Z,51.41
2018-07-26T20:39:42.034Z,51.73
2018-07-26T20:42:11.482Z,53.08
2018-07-26T20:44:40.039Z,54.12
2018-07-26T20:47:08.774Z,53.54
2018-07-26T20:49:37.295Z,53.76
2018-07-26T20:52:05.962Z,54.29
2018-07-26T20:54:34.306Z,53.30
2018-07-26T20:57:02.986Z,53.32
2018-07-26T20:59:31.597Z,53.52
2018-07-26T21:01:59.882Z,54.10
2018-07-26T21:04:28.490Z,54.93
2018-07-26T21:06:56.765Z,54.96
2018-07-26T21:09:25.114Z,54.89
2018-07-26T21:11:53.405Z,55.32
2018-07-26T21:14:21.813Z,55.30
2018-07-26T21:16:50.421Z,55.02
2018-07-26T21:19:18.745Z,55.62
2018-07-26T21:21:47.037Z,55.38
2018-07-26T21:24:15.397Z,55.38
2018-07-26T21:26:43.704Z,55.19
2018-07-26T21:29:12.066Z,55.57
2018-07-26T21:31:40.472Z,56.82
2018-07-26T21:34:09.765Z,56.27
2018-07-26T21:36:38.022Z,55.86
2018-07-26T21:39:08.169Z,57.29
2018-07-26T21:41:37.204Z,57.44
2018-07-26T21:44:05.594Z,57.72
2018-07-26T21:46:34.581Z,59.62
2018-07-26T21:49:02.874Z,59.31
2018-07-26T21:51:33.151Z,59.87
2018-07-26T21:54:01.663Z,58.89
2018-07-26T21:56:29.933Z,59.73
2018-07-26T21:58:58.199Z,60.78
2018-07-26T22:01:26.558Z,60.54
2018-07-26T22:03:55.105Z,59.91
2018-07-26T22:06:23.369Z,59.88
2018-07-26T22:08:51.657Z,59.58
2018-07-26T22:11:20.052Z,59.58
2018-07-26T22:13:48.332Z,59.86
2018-07-26T22:16:16.690Z,61.38
2018-07-26T22:18:45.035Z,62.02
2018-07-26T22:21:14.360Z,62.21
2018-07-26T22:23:42.586Z,61.50
2018-07-26T22:26:11.075Z,61.63
2018-07-26T22:28:40.255Z,61.82
2018-07-26T22:31:09.160Z,62.94
2018-07-26T22:33:37.388Z,62.96
2018-07-26T22:36:06.414Z,62.87
2018-07-26T22:38:34.679Z,63.41
2018-07-26T22:41:02.957Z,63.62
2018-07-26T22:43:31.196Z,64.70
2018-07-26T22:45:59.491Z,64.89
2018-07-26T22:48:27.779Z,63.97
2018-07-26T22:50:57.189Z,64.37
2018-07-26T22:53:26.065Z,64.21
2018-07-26T22:55:54.530Z,64.08
2018-07-26T22:58:22.809Z,64.10
2018-07-26T23:00:51.095Z,63.99
2018-07-26T23:03:19.343Z,63.50
2018-07-26T23:05:47.630Z,63.76
2018-07-26T23:08:17.213Z,63.01
2018-07-26T23:10:45.514Z,62.87
2018-07-26T23:13:13.805Z,63.19
2018-07-26T23:15:42.018Z,63.95
2018-07-26T23:18:11.281Z,63.35
2018-07-26T23:20:39.553Z,63.45
2018-07-26T23:23:08.522Z,63.60
2018-07-26T23:25:36.727Z,63.66
2018-07-26T23:28:05.144Z,63.42
2018-07-26T23:30:33.461Z,63.91
2018-07-26T23:33:01.787Z,64.15
2018-07-26T23:35:30.797Z,63.33
2018-07-26T23:37:59.072Z,64.02
2018-07-26T23:40:27.312Z,64.57
2018-07-26T23:42:55.585Z,63.93
2018-07-26T23:46:53.061Z,64.60
2018-07-26T23:49:21.289Z,65.28
2018-07-26T23:51:49.575Z,65.68
2018-07-26T23:54:17.909Z,65.34
2018-07-26T23:56:46.780Z,65.62
2018-07-26T23:59:15.141Z,66.41
